地図

経路データ

SID SEASON NUMBER BASIN SUBBASIN NAME ISO_TIME NATURE LAT LON WMO_WIND WMO_PRES WMO_AGENCY TRACK_TYPE DIST2LAND LANDFALL IFLAG USA_AGENCY USA_ATCF_ID USA_LAT USA_LON USA_RECORD USA_STATUS USA_WIND USA_PRES USA_SSHS USA_R34_NE USA_R34_SE USA_R34_SW USA_R34_NW USA_R50_NE USA_R50_SE USA_R50_SW USA_R50_NW USA_R64_NE USA_R64_SE USA_R64_SW USA_R64_NW USA_POCI USA_ROCI USA_RMW USA_EYE TOKYO_LAT TOKYO_LON TOKYO_GRADE TOKYO_WIND TOKYO_PRES TOKYO_R50_DIR TOKYO_R50_LONG TOKYO_R50_SHORT TOKYO_R30_DIR TOKYO_R30_LONG TOKYO_R30_SHORT TOKYO_LAND CMA_LAT CMA_LON CMA_CAT CMA_WIND CMA_PRES HKO_LAT HKO_LON HKO_CAT HKO_WIND HKO_PRES NEWDELHI_LAT NEWDELHI_LON NEWDELHI_GRADE NEWDELHI_WIND NEWDELHI_PRES NEWDELHI_CI NEWDELHI_DP NEWDELHI_POCI REUNION_LAT REUNION_LON REUNION_TYPE REUNION_WIND REUNION_PRES REUNION_TNUM REUNION_CI REUNION_RMW REUNION_R34_NE REUNION_R34_SE REUNION_R34_SW REUNION_R34_NW REUNION_R50_NE REUNION_R50_SE REUNION_R50_SW REUNION_R50_NW REUNION_R64_NE REUNION_R64_SE REUNION_R64_SW REUNION_R64_NW BOM_LAT BOM_LON BOM_TYPE BOM_WIND BOM_PRES BOM_TNUM BOM_CI BOM_RMW BOM_R34_NE BOM_R34_SE BOM_R34_SW BOM_R34_NW BOM_R50_NE BOM_R50_SE BOM_R50_SW BOM_R50_NW BOM_R64_NE BOM_R64_SE BOM_R64_SW BOM_R64_NW BOM_ROCI BOM_POCI BOM_EYE BOM_POS_METHOD BOM_PRES_METHOD NADI_LAT NADI_LON NADI_CAT NADI_WIND NADI_PRES WELLINGTON_LAT WELLINGTON_LON WELLINGTON_WIND WELLINGTON_PRES DS824_LAT DS824_LON DS824_STAGE DS824_WIND DS824_PRES TD9636_LAT TD9636_LON TD9636_STAGE TD9636_WIND TD9636_PRES TD9635_LAT TD9635_LON TD9635_WIND TD9635_PRES TD9635_ROCI NEUMANN_LAT NEUMANN_LON NEUMANN_CLASS NEUMANN_WIND NEUMANN_PRES MLC_LAT MLC_LON MLC_CLASS MLC_WIND MLC_PRES USA_GUST BOM_GUST BOM_GUST_PER REUNION_GUST REUNION_GUST_PER USA_SEAHGT USA_SEARAD_NE USA_SEARAD_SE USA_SEARAD_SW USA_SEARAD_NW STORM_SPEED STORM_DIR
1989230N17137 1989 83 WP MM NOT_NAMED 1989-08-18 00:00:00 TS 17.0000 137.000 main 1349 1328 __O___________ -1 17.0000 137.000 0 19 1004 8 316
1989230N17137 1989 83 WP MM NOT_NAMED 1989-08-18 03:00:00 TS 17.2726 136.720 main 1332 1322 __P___________ -1 17.2726 136.720 0 19 1004 8 321
1989230N17137 1989 83 WP MM NOT_NAMED 1989-08-18 06:00:00 TS 17.6000 136.500 main 1327 1322 __O___________ -1 17.6000 136.500 0 19 1004 8 337
1989230N17137 1989 83 WP MM NOT_NAMED 1989-08-18 09:00:00 TS 18.0074 136.390 main 1338 1338 __P___________ -1 18.0074 136.390 0 21 1004 8 353
1989230N17137 1989 83 WP MM NOT_NAMED 1989-08-18 12:00:00 TS 18.4000 136.400 main 1359 1359 __O___________ -1 18.4000 136.400 1 23 1004 7 11
1989230N17137 1989 83 WP MM NOT_NAMED 1989-08-18 15:00:00 TS 18.6650 136.520 main 1384 1384 __P___________ -1 18.6650 136.520 1 23 1004 6 30
1989230N17137 1989 83 WP MM NOT_NAMED 1989-08-18 18:00:00 TS 18.9000 136.700 main 1414 1414 __O___________ -1 18.9000 136.700 1 23 1004 6 36
1989230N17137 1989 83 WP MM NOT_NAMED 1989-08-18 21:00:00 TS 19.1850 136.925 main 1449 1431 __P___________ -1 19.1850 136.925 1 23 1004 7 25
1989230N17137 1989 83 WP MM NOT_NAMED 1989-08-19 00:00:00 TS 19.5000 137.000 main 1431 1392 __O___________ -1 19.5000 137.000 1 23 1004 7 345
1989230N17137 1989 83 WP MM NOT_NAMED 1989-08-19 03:00:00 TS 19.8576 136.733 main 1377 1329 __P___________ -1 19.8576 136.733 1 23 1004 10 317
1989230N17137 1989 83 WP MM NOT_NAMED 1989-08-19 06:00:00 TS 20.2000 136.300 main 1329 1282 __O___________ -1 20.2000 136.300 1 23 1004 10 309
1989230N17137 1989 83 WP MM NOT_NAMED 1989-08-19 09:00:00 TS 20.4875 135.900 main 1282 1246 __P___________ -1 20.4875 135.900 1 23 1004 9 304
1989230N17137 1989 83 WP MM NOT_NAMED 1989-08-19 12:00:00 TS 20.7000 135.500 main 1246 1224 __O___________ -1 20.7000 135.500 1 23 1004 7 297
1989230N17137 1989 83 WP MM NOT_NAMED 1989-08-19 15:00:00 TS 20.8220 135.187 main 1224 1199 __P___________ -1 20.8220 135.187 1 23 1004 7 287
1989230N17137 1989 83 WP MM NOT_NAMED 1989-08-19 18:00:00 TS 20.9000 134.800 main 1199 1170 __O___________ -1 20.9000 134.800 1 23 1004 9 282
1989230N17137 1989 83 WP MM NOT_NAMED 1989-08-19 21:00:00 TS 21.0150 134.210 main 1170 1140 __P___________ -1 21.0150 134.210 1 23 1004 12 279
1989230N17137 1989 83 WP MM NOT_NAMED 1989-08-20 00:00:00 TS 21.1000 133.500 main 1140 1125 __O___________ -1 21.1000 133.500 1 23 1004 14 273
1989230N17137 1989 83 WP MM NOT_NAMED 1989-08-20 03:00:00 TS 21.0850 132.757 main 1125 1058 __P___________ -1 21.0850 132.757 1 23 1004 14 270
1989230N17137 1989 83 WP MM NOT_NAMED 1989-08-20 06:00:00 TS 21.1000 132.000 main 1058 992 __O___________ -1 21.1000 132.000 1 23 1004 14 277
1989230N17137 1989 83 WP MM NOT_NAMED 1989-08-20 09:00:00 TS 21.2549 131.270 main 995 933 __P___________ -1 21.2549 131.270 1 23 1004 14 287
1989230N17137 1989 83 WP MM NOT_NAMED 1989-08-20 12:00:00 TS 21.5000 130.600 main 933 890 __O___________ -1 21.5000 130.600 1 23 1004 13 294
1989230N17137 1989 83 WP MM NOT_NAMED 1989-08-20 15:00:00 TS 21.7771 130.027 main 880 820 __P___________ -1 21.7771 130.027 1 23 1004 12 300
1989230N17137 1989 83 WP MM NOT_NAMED 1989-08-20 18:00:00 TS 22.1000 129.500 main 820 760 __O___________ -1 22.1000 129.500 1 23 1004 12 304
1989230N17137 1989 83 WP MM NOT_NAMED 1989-08-20 21:00:00 TS 22.4497 128.965 main 760 688 __P___________ -1 22.4497 128.965 1 23 1004 12 305
1989230N17137 1989 83 WP MM NOT_NAMED 1989-08-21 00:00:00 TS 22.8000 128.400 main 688 619 __O___________ -1 22.8000 128.400 1 23 1004 13 301
1989230N17137 1989 83 WP MM NOT_NAMED 1989-08-21 03:00:00 TS 23.1075 127.757 main 619 542 __P___________ -1 23.1075 127.757 1 23 1004 13 297
1989230N17137 1989 83 WP MM NOT_NAMED 1989-08-21 06:00:00 TS 23.4000 127.100 main 542 475 __O___________ -1 23.4000 127.100 1 23 1004 13 298
1989230N17137 1989 83 WP MM NOT_NAMED 1989-08-21 09:00:00 TS 23.7297 126.493 main 475 409 __P___________ -1 23.7297 126.493 1 23 1004 13 299
1989230N17137 1989 83 WP MM NOT_NAMED 1989-08-21 12:00:00 TS 24.0000 125.900 main 409 347 __O___________ -1 24.0000 125.900 1 23 1004 12 291
1989230N17137 1989 83 WP MM NOT_NAMED 1989-08-21 15:00:00 TS 24.1523 125.292 main 345 285 __P___________ -1 24.1523 125.292 1 23 1004 11 280
1989230N17137 1989 83 WP MM NOT_NAMED 1989-08-21 18:00:00 TS 24.2000 124.700 main 285 235 __O___________ -1 24.2000 124.700 1 23 1004 11 271
1989230N17137 1989 83 WP MM NOT_NAMED 1989-08-21 21:00:00 TS 24.1799 124.127 main 225 177 __P___________ -1 24.1799 124.127 1 23 1004 10 264
1989230N17137 1989 83 WP MM NOT_NAMED 1989-08-22 00:00:00 TS 24.1000 123.600 main 177 133 __O___________ -1 24.1000 123.600 1 23 1004 9 259
1989230N17137 1989 83 WP MM NOT_NAMED 1989-08-22 03:00:00 TS 24.0073 123.120 main 133 105 __P___________ -1 24.0073 123.120 1 23 1003 8 256
1989230N17137 1989 83 WP MM NOT_NAMED 1989-08-22 06:00:00 TS 23.9000 122.700 main 105 87 __O___________ -1 23.9000 122.700 1 23 1002 7 254
1989230N17137 1989 83 WP MM NOT_NAMED 1989-08-22 09:00:00 TS 23.7976 122.335 main 78 50 __P___________ -1 23.7976 122.335 1 21 1002 7 253
1989230N17137 1989 83 WP MM NOT_NAMED 1989-08-22 12:00:00 TS 23.7000 122.000 main 50 __O___________ -1 23.7000 122.000 0 19 1003 6 252

デジタル台風データ・検索

IBTrACS Databaseについて

本データベースは、米国NOAAが公開する1842年以降の世界の熱帯低気圧のベストトラックデータアーカイブInternational Best Track Archive for Climate Stewardship (IBTrACS)を、ウェブで閲覧しやすい形式に変換したものです。

最終更新日:2021-12-03